createdAt,value
2022-10-13T00:12:49.231Z,23.60
2022-10-13T00:27:50.672Z,23.60
2022-10-13T00:42:52.133Z,23.60
2022-10-13T00:57:53.584Z,23.60
2022-10-13T01:12:55.046Z,23.50
2022-10-13T01:27:56.513Z,23.50
2022-10-13T01:42:57.945Z,23.50
2022-10-13T01:57:59.399Z,23.40
2022-10-13T02:13:00.894Z,23.40
2022-10-13T02:28:02.348Z,23.40
2022-10-13T02:43:03.813Z,23.40
2022-10-13T02:58:05.270Z,23.40
2022-10-13T03:13:06.728Z,23.30
2022-10-13T03:28:08.167Z,23.30
2022-10-13T03:43:09.634Z,23.30
2022-10-13T03:58:11.094Z,23.30
2022-10-13T04:13:12.588Z,23.30
2022-10-13T04:28:14.057Z,23.20
2022-10-13T04:43:15.517Z,23.20
2022-10-13T04:58:16.977Z,23.20
2022-10-13T05:13:18.412Z,23.20
2022-10-13T05:28:19.892Z,23.10
2022-10-13T05:43:21.401Z,23.10
2022-10-13T05:58:22.841Z,23.10
2022-10-13T06:13:27.591Z,23.00
2022-10-13T06:28:29.165Z,23.00
2022-10-13T06:43:35.942Z,23.00
2022-10-13T06:58:40.252Z,23.00
2022-10-13T07:13:45.326Z,23.00
2022-10-13T07:28:48.944Z,23.00
2022-10-13T07:43:50.437Z,23.00
2022-10-13T07:58:51.884Z,23.10
2022-10-13T08:13:53.329Z,23.10
2022-10-13T08:29:16.674Z,23.00
2022-10-13T08:59:37.621Z,23.10
2022-10-13T09:14:39.075Z,23.20
2022-10-13T09:29:40.544Z,23.20
2022-10-13T09:44:41.981Z,23.30
2022-10-13T09:59:43.417Z,23.50
2022-10-13T10:14:44.857Z,23.80
2022-10-13T10:29:46.301Z,24.00
2022-10-13T10:44:47.756Z,24.00
2022-10-13T10:59:52.064Z,23.90
2022-10-13T11:14:53.516Z,23.80
2022-10-13T11:29:54.965Z,23.70
2022-10-13T11:44:56.403Z,23.70
2022-10-13T11:59:57.854Z,23.60
2022-10-13T12:15:02.641Z,23.60
2022-10-13T12:30:07.525Z,23.50
2022-10-13T12:45:08.982Z,23.50
2022-10-13T13:00:10.434Z,23.40
2022-10-13T13:15:11.877Z,23.40
2022-10-13T13:30:13.331Z,23.40
2022-10-13T13:45:14.794Z,23.40
2022-10-13T14:00:16.238Z,23.30
2022-10-13T14:15:17.697Z,23.30
2022-10-13T14:30:19.141Z,23.30
2022-10-13T14:45:20.591Z,23.20
2022-10-13T15:00:22.048Z,23.20
2022-10-13T15:15:23.501Z,23.20
2022-10-13T15:30:24.958Z,23.10
2022-10-13T15:45:26.407Z,23.10
2022-10-13T16:00:27.956Z,23.10
2022-10-13T16:15:29.524Z,23.00
2022-10-13T16:30:30.978Z,22.90
2022-10-13T16:45:55.242Z,23.00
2022-10-13T17:00:53.910Z,23.00
2022-10-13T17:15:55.422Z,23.00
2022-10-13T17:30:56.930Z,23.00
2022-10-13T17:46:17.718Z,23.00
2022-10-13T18:01:20.014Z,23.00
2022-10-13T18:16:21.579Z,23.10
2022-10-13T18:31:23.085Z,23.00
2022-10-13T18:46:24.542Z,22.90
2022-10-13T19:01:26.175Z,22.90
2022-10-13T19:16:27.684Z,22.90
2022-10-13T19:31:29.152Z,22.90
2022-10-13T19:46:30.621Z,22.90
2022-10-13T20:01:33.251Z,22.90
2022-10-13T20:16:34.698Z,22.90
2022-10-13T20:31:36.157Z,22.90
2022-10-13T20:46:37.606Z,22.90
2022-10-13T21:01:39.072Z,22.90
2022-10-13T21:16:40.525Z,22.80
2022-10-13T21:31:41.987Z,22.90
2022-10-13T21:46:43.462Z,22.80
2022-10-13T22:01:44.904Z,22.90
2022-10-13T22:16:46.355Z,22.80
2022-10-13T22:31:47.802Z,22.80
2022-10-13T22:46:49.258Z,22.80
2022-10-13T23:01:50.718Z,22.80
2022-10-13T23:16:52.166Z,22.80
2022-10-13T23:31:53.628Z,22.70
2022-10-13T23:46:55.083Z,22.70
